KFDKKMMU

Guest
Details From KFDK - Frederick Muni
To KMMU - Morristown Municipal Airport
Flight Number -
Tags generated
Created
Modified
Stats Distance 159 nm / 295 km
Max Altitude 17,400 ft / 5,304 m
Waypoints 3
Social Downloads 0
Likes 0
Share VATSIM

Download

Looking for another format? Having issues loading an existing format? Contact us
Advertisement - Login to hide

Notes

Basic altitude profile: - Ascent Rate: 2500ft/min - Ascent Speed: 250kts - Cruise Altitude: 8000ft - Cruise Speed: 150kts - Descent Rate: 1500ft/min - Descent Speed: 250kts Options: - Use NATs: yes - Use PACOTS: yes - Use low airways: yes - Use high airways: no

Route

KFDK TRAGG KMMU

ID Type Via Altitude Latitude Longitude Leg Dist Tot Dist Heading (true) Name
O KFDK APT - 0 ft / 0 m 39.41814˚ -77.37426˚ - 0 nm - Frederick Muni
TRAGG FIX - 17,400 ft / 5,304 m 40.09576˚ -75.93911˚ 77 nm 77 nm 58° / 59° -
O KMMU APT - 0 ft / 0 m 40.79924˚ -74.41547˚ 81 nm 159 nm 58° / 59° Morristown Municipal Airport

Altitude Profile

Advertisement - Login to hide

KFDK

Details ICAO KFDK
Name Frederick Muni
Region United States
Timezone America/New_York (UTC-5.0)
Stats Elevation 303 ft / 92 m (AMSL)
Location 39.418136° -77.374264°
Runways 2
Magnetic Variation 10.742° W

METAR

KFDK 171747Z 00000KT 10SM SKC 09/M03 A3023

Decode

TAF

Not found

Departure Runways

ID Width Length Bearing (true) Bearing (mag) Surface Threshold Offset Overrun Length
05 100 ft / 30 m 5,222 ft / 1,592 m 40.39° 51.13° Asphalt 0 ft / 0 m 0 ft / 0 m
12 75 ft / 23 m 3,594 ft / 1,096 m 116.05° 126.79° Asphalt 0 ft / 0 m 0 ft / 0 m
23 100 ft / 30 m 5,222 ft / 1,592 m 220.39° 231.13° Asphalt 0 ft / 0 m 0 ft / 0 m
30 75 ft / 23 m 3,594 ft / 1,096 m 296.06° 306.80° Asphalt 0 ft / 0 m 0 ft / 0 m

KMMU

Details ICAO KMMU (MMU)
Name Morristown Municipal Airport
Region United States
Timezone America/New_York (UTC-5.0)
Stats Elevation 187 ft / 57 m (AMSL)
Location 40.799237° -74.415469°
Runways 2
Magnetic Variation 12.709° W

METAR

KMMU 171745Z 00000KT 10SM OVC060 02/M05 A3026

Decode

TAF

Not found

Destination Runways

ID Width Length Bearing (true) Bearing (mag) Surface Threshold Offset Overrun Length
05 144 ft / 44 m 6,014 ft / 1,833 m 36.29° 49.00° Asphalt 0 ft / 0 m 0 ft / 0 m
13 161 ft / 49 m 3,937 ft / 1,200 m 114.47° 127.18° Asphalt 0 ft / 0 m 0 ft / 0 m
23 144 ft / 44 m 6,014 ft / 1,833 m 216.30° 229.01° Asphalt 0 ft / 0 m 0 ft / 0 m
31 161 ft / 49 m 3,937 ft / 1,200 m 294.47° 307.18° Asphalt 0 ft / 0 m 0 ft / 0 m

Approach Navaids

Runway Type Ident Frequency Range Bearing (true) Bearing (mag) Slope Elevation
23 Localiser IMMU 110.30 MHz 18 nm / 33 km 216.01° 228.72° - 187 ft / 57 m (AMSL)
23 Glidescope IMMU 110.30 MHz 10 nm / 19 km 216.30° 229.00° 3.00° 184 ft / 56 m (AMSL)